Pagrindinis puslapis
METAR-TAF:

METAR-TAF

Oro uostai :

Odensė, Danija

platuma: 55-29N, ilguma: 010-20E, Aukštis: 17 m

Dabartinis oras

Ataskaita buvo paskelbta 7 valandos ir 45 minutes, ne 14:50 UTC
Vėjas 16 kt iš Pietvakarių, svyruoja nuo Pietų ir Vakarų/Pietvakarių
Temperatūra 21°C
Drėgmė 46%
Slėgis 1021 hPa
Matomumas 10 km arba daugiau
Mažai debesys ne aukštis 3200 ft
Išsisklaidę debesys ne aukštis 5000 ft

METAR: EKOD 021450Z 23016KT 190V250 9999 FEW032 SCT050 21/09 Q1021

Laikas: 00:35 (22:35 UTC)

Prognozė

Ataskaita buvo paskelbta 13 valandos ir 43 minutes, ne 08:52 UTC
Prognozė galioja nuo 02 metu 09 UTC su 02 metu 15 UTC
Vėjas 12 kt iš Pietvakarių
Matomumas 10 km arba daugiau
Išsisklaidę debesys ne aukštis 3000 ft
Laikinai
nuo 02 metu 09 UTC su 02 metu 15 UTC
Išsisklaidę debesys ne aukštis 2500 ft, aukštai iškilę kamuoliniai debesys.
lietus

TAF: EKOD 020852Z 0209/0215 22012KT 9999 SCT030 TEMPO 0209/0215 -SHRA SCT025TCU

Orai ataskaitas ir orų prognozės (METAR, TAF).

turimą stotys yra geltonos ir raudonos taškus žemėlapyje.

Perkelti pele per norėdami pamatyti stoties vardą.

Tada spustelėkite, norėdami matyti oro stebėjimo ir prognozės.

Norėdami pakeisti žemėlapį: spustelėkite ant žalios mygtukų su juodo kryžiaus žemyn,; žalią mygtuką su brūkšneliu, jei norite nutolinti; arba žalių rodyklių gretimoms žemėlapius.


METAR-TAF: